sensor_id;sensor_type;location;lat;lon;timestamp;P1;durP1;ratioP1;P2;durP2;ratioP2
16642;SDS011;8435;52.184;5.406;2023-02-07T00:00:31;14.33;;;8.50;;
16642;SDS011;8435;52.184;5.406;2023-02-07T00:02:57;10.93;;;8.30;;
16642;SDS011;8435;52.184;5.406;2023-02-07T00:05:24;15.07;;;8.93;;
16642;SDS011;8435;52.184;5.406;2023-02-07T00:07:52;15.27;;;9.43;;
16642;SDS011;8435;52.184;5.406;2023-02-07T00:10:21;13.10;;;8.30;;
16642;SDS011;8435;52.184;5.406;2023-02-07T00:12:48;12.03;;;8.50;;
16642;SDS011;8435;52.184;5.406;2023-02-07T00:15:15;13.23;;;8.13;;
16642;SDS011;8435;52.184;5.406;2023-02-07T00:17:42;13.07;;;9.13;;
16642;SDS011;8435;52.184;5.406;2023-02-07T00:20:09;12.40;;;9.27;;
16642;SDS011;8435;52.184;5.406;2023-02-07T00:22:39;14.60;;;9.33;;
16642;SDS011;8435;52.184;5.406;2023-02-07T00:25:06;12.83;;;8.80;;
16642;SDS011;8435;52.184;5.406;2023-02-07T00:27:34;12.87;;;8.50;;
16642;SDS011;8435;52.184;5.406;2023-02-07T00:30:04;14.23;;;8.53;;
16642;SDS011;8435;52.184;5.406;2023-02-07T00:32:31;13.87;;;7.83;;
16642;SDS011;8435;52.184;5.406;2023-02-07T00:34:59;14.77;;;9.67;;
16642;SDS011;8435;52.184;5.406;2023-02-07T00:37:26;14.03;;;8.10;;
16642;SDS011;8435;52.184;5.406;2023-02-07T00:39:53;12.00;;;9.00;;
16642;SDS011;8435;52.184;5.406;2023-02-07T00:42:20;12.70;;;8.00;;
16642;SDS011;8435;52.184;5.406;2023-02-07T00:44:48;13.03;;;8.40;;
16642;SDS011;8435;52.184;5.406;2023-02-07T00:47:15;18.67;;;8.63;;
16642;SDS011;8435;52.184;5.406;2023-02-07T00:49:43;14.03;;;8.57;;
16642;SDS011;8435;52.184;5.406;2023-02-07T00:52:10;11.13;;;7.83;;
16642;SDS011;8435;52.184;5.406;2023-02-07T00:54:36;14.50;;;8.60;;
16642;SDS011;8435;52.184;5.406;2023-02-07T00:57:03;10.90;;;7.50;;
16642;SDS011;8435;52.184;5.406;2023-02-07T00:59:30;9.43;;;7.47;;
16642;SDS011;8435;52.184;5.406;2023-02-07T01:01:58;13.77;;;8.27;;
16642;SDS011;8435;52.184;5.406;2023-02-07T01:04:28;13.40;;;8.50;;
16642;SDS011;8435;52.184;5.406;2023-02-07T01:06:55;14.00;;;7.90;;
16642;SDS011;8435;52.184;5.406;2023-02-07T01:09:21;12.27;;;7.83;;
16642;SDS011;8435;52.184;5.406;2023-02-07T01:11:48;12.23;;;8.07;;
16642;SDS011;8435;52.184;5.406;2023-02-07T01:14:15;14.70;;;8.70;;
16642;SDS011;8435;52.184;5.406;2023-02-07T01:16:42;14.03;;;7.97;;
16642;SDS011;8435;52.184;5.406;2023-02-07T01:19:11;15.17;;;8.67;;
16642;SDS011;8435;52.184;5.406;2023-02-07T01:21:38;11.93;;;8.63;;
16642;SDS011;8435;52.184;5.406;2023-02-07T01:24:05;13.53;;;8.30;;
16642;SDS011;8435;52.184;5.406;2023-02-07T01:26:32;17.50;;;8.03;;
16642;SDS011;8435;52.184;5.406;2023-02-07T01:29:00;16.23;;;8.57;;
16642;SDS011;8435;52.184;5.406;2023-02-07T01:31:27;12.87;;;8.30;;
16642;SDS011;8435;52.184;5.406;2023-02-07T01:33:54;14.53;;;7.77;;
16642;SDS011;8435;52.184;5.406;2023-02-07T01:36:26;12.43;;;7.83;;
16642;SDS011;8435;52.184;5.406;2023-02-07T01:38:54;12.63;;;7.73;;
16642;SDS011;8435;52.184;5.406;2023-02-07T01:41:22;15.47;;;8.03;;
16642;SDS011;8435;52.184;5.406;2023-02-07T01:43:53;11.73;;;7.27;;
16642;SDS011;8435;52.184;5.406;2023-02-07T01:46:21;15.17;;;7.93;;
16642;SDS011;8435;52.184;5.406;2023-02-07T01:48:48;11.80;;;7.50;;
16642;SDS011;8435;52.184;5.406;2023-02-07T01:51:17;12.77;;;7.67;;
16642;SDS011;8435;52.184;5.406;2023-02-07T01:53:45;12.50;;;8.20;;
16642;SDS011;8435;52.184;5.406;2023-02-07T01:56:12;13.53;;;8.33;;
16642;SDS011;8435;52.184;5.406;2023-02-07T01:58:41;15.97;;;8.80;;
16642;SDS011;8435;52.184;5.406;2023-02-07T02:01:09;14.97;;;7.73;;
16642;SDS011;8435;52.184;5.406;2023-02-07T02:03:44;15.07;;;8.00;;
16642;SDS011;8435;52.184;5.406;2023-02-07T02:06:14;13.07;;;7.20;;
16642;SDS011;8435;52.184;5.406;2023-02-07T02:08:41;11.10;;;7.33;;
16642;SDS011;8435;52.184;5.406;2023-02-07T02:11:15;17.07;;;8.23;;
16642;SDS011;8435;52.184;5.406;2023-02-07T02:13:58;14.67;;;8.13;;
16642;SDS011;8435;52.184;5.406;2023-02-07T02:16:29;13.77;;;8.37;;
16642;SDS011;8435;52.184;5.406;2023-02-07T02:19:16;10.37;;;7.30;;
16642;SDS011;8435;52.184;5.406;2023-02-07T02:22:18;13.53;;;8.03;;
16642;SDS011;8435;52.184;5.406;2023-02-07T02:25:04;13.30;;;7.20;;
16642;SDS011;8435;52.184;5.406;2023-02-07T02:31:13;12.57;;;7.50;;
16642;SDS011;8435;52.184;5.406;2023-02-07T02:34:01;11.50;;;7.30;;
16642;SDS011;8435;52.184;5.406;2023-02-07T02:36:32;13.00;;;7.37;;
16642;SDS011;8435;52.184;5.406;2023-02-07T02:39:07;15.17;;;8.50;;
16642;SDS011;8435;52.184;5.406;2023-02-07T02:41:39;13.73;;;7.63;;
16642;SDS011;8435;52.184;5.406;2023-02-07T02:44:12;15.17;;;9.30;;
16642;SDS011;8435;52.184;5.406;2023-02-07T02:46:45;14.80;;;7.77;;
16642;SDS011;8435;52.184;5.406;2023-02-07T02:49:15;13.97;;;8.93;;
16642;SDS011;8435;52.184;5.406;2023-02-07T02:51:43;15.20;;;7.93;;
16642;SDS011;8435;52.184;5.406;2023-02-07T02:54:26;13.00;;;8.50;;
16642;SDS011;8435;52.184;5.406;2023-02-07T02:56:57;11.17;;;7.70;;
16642;SDS011;8435;52.184;5.406;2023-02-07T03:02:33;12.33;;;8.17;;
16642;SDS011;8435;52.184;5.406;2023-02-07T03:05:13;12.40;;;9.43;;
16642;SDS011;8435;52.184;5.406;2023-02-07T03:08:07;17.60;;;9.17;;
16642;SDS011;8435;52.184;5.406;2023-02-07T03:10:44;15.47;;;9.43;;
16642;SDS011;8435;52.184;5.406;2023-02-07T03:13:20;16.17;;;9.03;;
16642;SDS011;8435;52.184;5.406;2023-02-07T03:16:01;14.83;;;9.50;;
16642;SDS011;8435;52.184;5.406;2023-02-07T03:18:38;16.97;;;9.87;;
16642;SDS011;8435;52.184;5.406;2023-02-07T03:21:14;16.73;;;9.80;;
16642;SDS011;8435;52.184;5.406;2023-02-07T03:23:47;13.60;;;9.43;;
16642;SDS011;8435;52.184;5.406;2023-02-07T03:26:16;16.70;;;10.53;;
16642;SDS011;8435;52.184;5.406;2023-02-07T03:28:44;15.93;;;8.90;;
16642;SDS011;8435;52.184;5.406;2023-02-07T03:31:13;16.43;;;9.80;;
16642;SDS011;8435;52.184;5.406;2023-02-07T03:33:45;13.60;;;9.97;;
16642;SDS011;8435;52.184;5.406;2023-02-07T03:36:16;19.63;;;11.30;;
16642;SDS011;8435;52.184;5.406;2023-02-07T03:38:47;15.20;;;9.40;;
16642;SDS011;8435;52.184;5.406;2023-02-07T03:41:15;14.30;;;10.30;;
16642;SDS011;8435;52.184;5.406;2023-02-07T03:43:49;16.23;;;10.33;;
16642;SDS011;8435;52.184;5.406;2023-02-07T03:46:17;15.60;;;9.73;;
16642;SDS011;8435;52.184;5.406;2023-02-07T03:48:44;18.17;;;9.73;;
16642;SDS011;8435;52.184;5.406;2023-02-07T03:51:11;18.73;;;10.97;;
16642;SDS011;8435;52.184;5.406;2023-02-07T03:53:39;17.17;;;10.63;;
16642;SDS011;8435;52.184;5.406;2023-02-07T03:56:06;16.57;;;10.60;;
16642;SDS011;8435;52.184;5.406;2023-02-07T03:58:36;17.83;;;10.53;;
16642;SDS011;8435;52.184;5.406;2023-02-07T04:01:02;20.23;;;10.77;;
16642;SDS011;8435;52.184;5.406;2023-02-07T04:03:30;15.77;;;9.80;;
16642;SDS011;8435;52.184;5.406;2023-02-07T04:05:56;17.00;;;10.27;;
16642;SDS011;8435;52.184;5.406;2023-02-07T04:08:23;19.37;;;10.63;;
16642;SDS011;8435;52.184;5.406;2023-02-07T04:10:58;17.93;;;11.33;;
16642;SDS011;8435;52.184;5.406;2023-02-07T04:13:27;20.80;;;11.60;;
16642;SDS011;8435;52.184;5.406;2023-02-07T04:15:54;18.10;;;10.93;;
16642;SDS011;8435;52.184;5.406;2023-02-07T04:18:21;17.63;;;11.30;;
16642;SDS011;8435;52.184;5.406;2023-02-07T04:20:47;22.63;;;11.20;;
16642;SDS011;8435;52.184;5.406;2023-02-07T04:23:14;15.10;;;9.90;;
16642;SDS011;8435;52.184;5.406;2023-02-07T04:25:41;16.30;;;11.30;;
16642;SDS011;8435;52.184;5.406;2023-02-07T04:28:09;18.47;;;11.23;;
16642;SDS011;8435;52.184;5.406;2023-02-07T04:30:36;14.53;;;10.33;;
16642;SDS011;8435;52.184;5.406;2023-02-07T04:33:03;17.00;;;11.20;;
16642;SDS011;8435;52.184;5.406;2023-02-07T04:35:30;19.37;;;10.93;;
16642;SDS011;8435;52.184;5.406;2023-02-07T04:37:56;19.50;;;11.43;;
16642;SDS011;8435;52.184;5.406;2023-02-07T04:40:23;22.20;;;12.33;;
16642;SDS011;8435;52.184;5.406;2023-02-07T04:42:53;18.10;;;11.57;;
16642;SDS011;8435;52.184;5.406;2023-02-07T04:45:21;19.87;;;11.57;;
16642;SDS011;8435;52.184;5.406;2023-02-07T04:47:48;18.73;;;11.93;;
16642;SDS011;8435;52.184;5.406;2023-02-07T04:50:14;23.60;;;12.00;;
16642;SDS011;8435;52.184;5.406;2023-02-07T04:52:41;19.13;;;12.10;;
16642;SDS011;8435;52.184;5.406;2023-02-07T04:55:08;19.93;;;12.73;;
16642;SDS011;8435;52.184;5.406;2023-02-07T04:57:35;17.80;;;10.53;;
16642;SDS011;8435;52.184;5.406;2023-02-07T05:00:02;20.03;;;12.13;;
16642;SDS011;8435;52.184;5.406;2023-02-07T05:02:31;22.27;;;12.53;;
16642;SDS011;8435;52.184;5.406;2023-02-07T05:04:58;18.03;;;11.83;;
16642;SDS011;8435;52.184;5.406;2023-02-07T05:07:25;17.60;;;11.13;;
16642;SDS011;8435;52.184;5.406;2023-02-07T05:09:51;20.40;;;12.43;;
16642;SDS011;8435;52.184;5.406;2023-02-07T05:12:21;19.23;;;12.40;;
16642;SDS011;8435;52.184;5.406;2023-02-07T05:14:47;20.10;;;12.47;;
16642;SDS011;8435;52.184;5.406;2023-02-07T05:17:14;21.40;;;13.00;;
16642;SDS011;8435;52.184;5.406;2023-02-07T05:19:43;15.57;;;11.70;;
16642;SDS011;8435;52.184;5.406;2023-02-07T05:22:09;16.60;;;11.67;;
16642;SDS011;8435;52.184;5.406;2023-02-07T05:24:36;20.33;;;12.70;;
16642;SDS011;8435;52.184;5.406;2023-02-07T05:27:03;18.20;;;11.80;;
16642;SDS011;8435;52.184;5.406;2023-02-07T05:29:30;18.60;;;11.93;;
16642;SDS011;8435;52.184;5.406;2023-02-07T05:31:57;23.20;;;12.87;;
16642;SDS011;8435;52.184;5.406;2023-02-07T05:34:42;19.07;;;12.60;;
16642;SDS011;8435;52.184;5.406;2023-02-07T05:37:09;19.03;;;12.27;;
16642;SDS011;8435;52.184;5.406;2023-02-07T05:39:35;20.47;;;12.90;;
16642;SDS011;8435;52.184;5.406;2023-02-07T05:42:02;19.97;;;12.33;;
16642;SDS011;8435;52.184;5.406;2023-02-07T05:44:29;21.93;;;13.47;;
16642;SDS011;8435;52.184;5.406;2023-02-07T05:46:56;18.20;;;13.20;;
16642;SDS011;8435;52.184;5.406;2023-02-07T05:49:23;19.87;;;13.23;;
16642;SDS011;8435;52.184;5.406;2023-02-07T05:51:51;22.73;;;14.03;;
16642;SDS011;8435;52.184;5.406;2023-02-07T05:54:18;20.87;;;14.20;;
16642;SDS011;8435;52.184;5.406;2023-02-07T05:56:46;24.23;;;14.33;;
16642;SDS011;8435;52.184;5.406;2023-02-07T05:59:13;22.60;;;13.57;;
16642;SDS011;8435;52.184;5.406;2023-02-07T06:01:40;21.73;;;13.10;;
16642;SDS011;8435;52.184;5.406;2023-02-07T06:04:08;24.10;;;14.53;;
16642;SDS011;8435;52.184;5.406;2023-02-07T06:06:35;22.03;;;13.63;;
16642;SDS011;8435;52.184;5.406;2023-02-07T06:09:03;21.47;;;13.07;;
16642;SDS011;8435;52.184;5.406;2023-02-07T06:11:30;22.63;;;14.70;;
16642;SDS011;8435;52.184;5.406;2023-02-07T06:13:57;24.23;;;15.90;;
16642;SDS011;8435;52.184;5.406;2023-02-07T06:16:23;24.20;;;15.10;;
16642;SDS011;8435;52.184;5.406;2023-02-07T06:18:50;20.93;;;13.93;;
16642;SDS011;8435;52.184;5.406;2023-02-07T06:21:17;25.13;;;15.50;;
16642;SDS011;8435;52.184;5.406;2023-02-07T06:23:44;21.93;;;14.67;;
16642;SDS011;8435;52.184;5.406;2023-02-07T06:26:14;20.33;;;14.00;;
16642;SDS011;8435;52.184;5.406;2023-02-07T06:28:43;27.67;;;15.53;;
16642;SDS011;8435;52.184;5.406;2023-02-07T06:31:12;30.60;;;18.87;;
16642;SDS011;8435;52.184;5.406;2023-02-07T06:33:39;27.97;;;18.17;;
16642;SDS011;8435;52.184;5.406;2023-02-07T06:36:06;26.67;;;17.87;;
16642;SDS011;8435;52.184;5.406;2023-02-07T06:38:35;25.87;;;15.30;;
16642;SDS011;8435;52.184;5.406;2023-02-07T06:41:02;28.43;;;16.30;;
16642;SDS011;8435;52.184;5.406;2023-02-07T06:43:31;23.80;;;15.20;;
16642;SDS011;8435;52.184;5.406;2023-02-07T06:45:57;24.90;;;16.57;;
16642;SDS011;8435;52.184;5.406;2023-02-07T06:48:24;22.20;;;15.30;;
16642;SDS011;8435;52.184;5.406;2023-02-07T06:50:53;26.97;;;16.40;;
16642;SDS011;8435;52.184;5.406;2023-02-07T06:53:19;32.67;;;19.43;;
16642;SDS011;8435;52.184;5.406;2023-02-07T06:55:49;31.27;;;20.30;;
16642;SDS011;8435;52.184;5.406;2023-02-07T06:58:16;23.30;;;14.67;;
16642;SDS011;8435;52.184;5.406;2023-02-07T07:00:44;29.50;;;15.03;;
16642;SDS011;8435;52.184;5.406;2023-02-07T07:03:14;27.80;;;16.10;;
16642;SDS011;8435;52.184;5.406;2023-02-07T07:05:42;24.80;;;15.67;;
16642;SDS011;8435;52.184;5.406;2023-02-07T07:08:15;24.77;;;14.77;;
16642;SDS011;8435;52.184;5.406;2023-02-07T07:10:43;24.93;;;15.17;;
16642;SDS011;8435;52.184;5.406;2023-02-07T07:15:57;23.20;;;16.13;;
16642;SDS011;8435;52.184;5.406;2023-02-07T07:18:24;24.53;;;15.27;;
16642;SDS011;8435;52.184;5.406;2023-02-07T07:20:51;22.20;;;15.10;;
16642;SDS011;8435;52.184;5.406;2023-02-07T07:23:18;26.87;;;15.63;;
16642;SDS011;8435;52.184;5.406;2023-02-07T07:25:45;26.67;;;17.13;;
16642;SDS011;8435;52.184;5.406;2023-02-07T07:28:12;22.57;;;15.57;;
16642;SDS011;8435;52.184;5.406;2023-02-07T07:30:40;22.50;;;15.90;;
16642;SDS011;8435;52.184;5.406;2023-02-07T07:33:08;23.90;;;15.27;;
16642;SDS011;8435;52.184;5.406;2023-02-07T07:35:34;24.30;;;15.53;;
16642;SDS011;8435;52.184;5.406;2023-02-07T07:38:01;25.13;;;16.87;;
16642;SDS011;8435;52.184;5.406;2023-02-07T07:40:28;24.07;;;16.20;;
16642;SDS011;8435;52.184;5.406;2023-02-07T07:42:55;26.97;;;17.17;;
16642;SDS011;8435;52.184;5.406;2023-02-07T07:45:22;27.13;;;17.40;;
16642;SDS011;8435;52.184;5.406;2023-02-07T07:47:49;28.77;;;20.30;;
16642;SDS011;8435;52.184;5.406;2023-02-07T07:50:17;29.67;;;18.60;;
16642;SDS011;8435;52.184;5.406;2023-02-07T07:52:44;32.77;;;18.53;;
16642;SDS011;8435;52.184;5.406;2023-02-07T07:55:11;28.63;;;19.40;;
16642;SDS011;8435;52.184;5.406;2023-02-07T07:57:39;28.37;;;18.20;;
16642;SDS011;8435;52.184;5.406;2023-02-07T08:00:06;33.97;;;20.40;;
16642;SDS011;8435;52.184;5.406;2023-02-07T08:02:34;28.33;;;18.17;;
16642;SDS011;8435;52.184;5.406;2023-02-07T08:05:00;27.23;;;17.10;;
16642;SDS011;8435;52.184;5.406;2023-02-07T08:07:29;24.17;;;15.77;;
16642;SDS011;8435;52.184;5.406;2023-02-07T08:09:55;29.93;;;18.23;;
16642;SDS011;8435;52.184;5.406;2023-02-07T08:12:22;30.70;;;18.30;;
16642;SDS011;8435;52.184;5.406;2023-02-07T08:14:49;24.57;;;16.43;;
16642;SDS011;8435;52.184;5.406;2023-02-07T08:17:16;28.20;;;17.87;;
16642;SDS011;8435;52.184;5.406;2023-02-07T08:19:43;30.73;;;17.57;;
16642;SDS011;8435;52.184;5.406;2023-02-07T08:22:10;27.63;;;18.30;;
16642;SDS011;8435;52.184;5.406;2023-02-07T08:24:39;25.43;;;16.30;;
16642;SDS011;8435;52.184;5.406;2023-02-07T08:27:06;24.27;;;17.13;;
16642;SDS011;8435;52.184;5.406;2023-02-07T08:29:33;26.77;;;18.77;;
16642;SDS011;8435;52.184;5.406;2023-02-07T08:32:00;27.07;;;18.27;;
16642;SDS011;8435;52.184;5.406;2023-02-07T08:34:27;27.60;;;19.00;;
16642;SDS011;8435;52.184;5.406;2023-02-07T08:36:55;30.23;;;18.53;;
16642;SDS011;8435;52.184;5.406;2023-02-07T08:39:22;29.80;;;19.30;;
16642;SDS011;8435;52.184;5.406;2023-02-07T08:41:50;28.03;;;18.90;;
16642;SDS011;8435;52.184;5.406;2023-02-07T08:44:17;28.53;;;18.73;;
16642;SDS011;8435;52.184;5.406;2023-02-07T08:46:47;26.87;;;17.67;;
16642;SDS011;8435;52.184;5.406;2023-02-07T08:49:13;26.43;;;17.80;;
16642;SDS011;8435;52.184;5.406;2023-02-07T08:51:43;24.83;;;17.00;;
16642;SDS011;8435;52.184;5.406;2023-02-07T08:54:10;21.60;;;17.20;;
16642;SDS011;8435;52.184;5.406;2023-02-07T08:56:36;24.10;;;16.77;;
16642;SDS011;8435;52.184;5.406;2023-02-07T08:59:04;20.10;;;14.57;;
16642;SDS011;8435;52.184;5.406;2023-02-07T09:01:34;21.60;;;16.00;;
16642;SDS011;8435;52.184;5.406;2023-02-07T09:04:01;21.33;;;16.07;;
16642;SDS011;8435;52.184;5.406;2023-02-07T09:06:28;23.97;;;15.73;;
16642;SDS011;8435;52.184;5.406;2023-02-07T09:08:55;23.80;;;15.80;;
16642;SDS011;8435;52.184;5.406;2023-02-07T09:11:23;23.97;;;16.67;;
16642;SDS011;8435;52.184;5.406;2023-02-07T09:13:50;22.20;;;15.97;;
16642;SDS011;8435;52.184;5.406;2023-02-07T09:16:18;21.83;;;15.20;;
16642;SDS011;8435;52.184;5.406;2023-02-07T09:18:47;20.63;;;15.17;;
16642;SDS011;8435;52.184;5.406;2023-02-07T09:21:14;21.00;;;14.80;;
16642;SDS011;8435;52.184;5.406;2023-02-07T09:23:45;21.10;;;15.17;;
16642;SDS011;8435;52.184;5.406;2023-02-07T09:26:14;21.23;;;15.57;;
16642;SDS011;8435;52.184;5.406;2023-02-07T09:28:42;20.93;;;14.90;;
16642;SDS011;8435;52.184;5.406;2023-02-07T09:31:09;21.23;;;14.97;;
16642;SDS011;8435;52.184;5.406;2023-02-07T09:33:39;20.23;;;14.53;;
16642;SDS011;8435;52.184;5.406;2023-02-07T09:36:14;19.47;;;14.53;;
16642;SDS011;8435;52.184;5.406;2023-02-07T09:38:42;19.57;;;14.67;;
16642;SDS011;8435;52.184;5.406;2023-02-07T09:41:12;20.27;;;14.20;;
16642;SDS011;8435;52.184;5.406;2023-02-07T09:43:47;20.97;;;14.97;;
16642;SDS011;8435;52.184;5.406;2023-02-07T09:46:24;19.70;;;14.20;;
16642;SDS011;8435;52.184;5.406;2023-02-07T09:49:00;21.13;;;14.07;;
16642;SDS011;8435;52.184;5.406;2023-02-07T09:51:30;20.37;;;14.20;;
16642;SDS011;8435;52.184;5.406;2023-02-07T09:53:59;19.43;;;13.80;;
16642;SDS011;8435;52.184;5.406;2023-02-07T09:56:32;21.00;;;13.90;;
16642;SDS011;8435;52.184;5.406;2023-02-07T09:59:01;20.00;;;13.80;;
16642;SDS011;8435;52.184;5.406;2023-02-07T10:01:32;18.53;;;13.83;;
16642;SDS011;8435;52.184;5.406;2023-02-07T10:04:07;18.87;;;12.93;;
16642;SDS011;8435;52.184;5.406;2023-02-07T10:06:54;17.77;;;12.57;;
16642;SDS011;8435;52.184;5.406;2023-02-07T10:09:23;16.20;;;11.47;;
16642;SDS011;8435;52.184;5.406;2023-02-07T10:11:52;18.57;;;13.70;;
16642;SDS011;8435;52.184;5.406;2023-02-07T10:14:28;19.37;;;13.43;;
16642;SDS011;8435;52.184;5.406;2023-02-07T10:17:25;16.53;;;13.17;;
16642;SDS011;8435;52.184;5.406;2023-02-07T10:20:11;15.93;;;12.27;;
16642;SDS011;8435;52.184;5.406;2023-02-07T10:22:52;17.57;;;12.53;;
16642;SDS011;8435;52.184;5.406;2023-02-07T10:25:29;17.57;;;11.47;;
16642;SDS011;8435;52.184;5.406;2023-02-07T10:28:13;20.37;;;12.40;;
16642;SDS011;8435;52.184;5.406;2023-02-07T10:31:03;16.20;;;12.47;;
16642;SDS011;8435;52.184;5.406;2023-02-07T10:33:37;15.77;;;10.77;;
16642;SDS011;8435;52.184;5.406;2023-02-07T10:36:12;14.63;;;10.20;;
16642;SDS011;8435;52.184;5.406;2023-02-07T10:38:41;15.57;;;10.23;;
16642;SDS011;8435;52.184;5.406;2023-02-07T10:41:12;14.47;;;10.70;;
16642;SDS011;8435;52.184;5.406;2023-02-07T10:43:43;14.23;;;10.33;;
16642;SDS011;8435;52.184;5.406;2023-02-07T10:46:13;13.10;;;9.67;;
16642;SDS011;8435;52.184;5.406;2023-02-07T10:48:41;13.40;;;10.23;;
16642;SDS011;8435;52.184;5.406;2023-02-07T10:51:13;10.17;;;8.87;;
16642;SDS011;8435;52.184;5.406;2023-02-07T10:54:00;12.90;;;9.53;;
16642;SDS011;8435;52.184;5.406;2023-02-07T10:56:32;11.13;;;9.63;;
16642;SDS011;8435;52.184;5.406;2023-02-07T10:59:03;11.13;;;9.40;;
16642;SDS011;8435;52.184;5.406;2023-02-07T11:01:30;10.27;;;8.50;;
16642;SDS011;8435;52.184;5.406;2023-02-07T11:03:58;11.57;;;9.37;;
16642;SDS011;8435;52.184;5.406;2023-02-07T11:06:27;9.47;;;8.20;;
16642;SDS011;8435;52.184;5.406;2023-02-07T11:09:11;12.23;;;8.97;;
16642;SDS011;8435;52.184;5.406;2023-02-07T11:11:46;9.87;;;8.20;;
16642;SDS011;8435;52.184;5.406;2023-02-07T11:14:17;11.53;;;8.53;;
16642;SDS011;8435;52.184;5.406;2023-02-07T11:16:50;9.27;;;7.40;;
16642;SDS011;8435;52.184;5.406;2023-02-07T11:19:18;8.87;;;7.27;;
16642;SDS011;8435;52.184;5.406;2023-02-07T11:21:48;11.40;;;8.47;;
16642;SDS011;8435;52.184;5.406;2023-02-07T11:24:17;9.13;;;7.40;;
16642;SDS011;8435;52.184;5.406;2023-02-07T11:26:51;9.30;;;7.53;;
16642;SDS011;8435;52.184;5.406;2023-02-07T11:29:21;10.77;;;7.93;;
16642;SDS011;8435;52.184;5.406;2023-02-07T11:31:49;8.07;;;7.20;;
16642;SDS011;8435;52.184;5.406;2023-02-07T11:34:26;8.60;;;7.20;;
16642;SDS011;8435;52.184;5.406;2023-02-07T11:37:10;8.90;;;8.00;;
16642;SDS011;8435;52.184;5.406;2023-02-07T11:39:46;10.57;;;8.30;;
16642;SDS011;8435;52.184;5.406;2023-02-07T11:42:17;9.03;;;7.80;;
16642;SDS011;8435;52.184;5.406;2023-02-07T11:44:45;9.97;;;7.90;;
16642;SDS011;8435;52.184;5.406;2023-02-07T11:47:14;10.67;;;7.70;;
16642;SDS011;8435;52.184;5.406;2023-02-07T11:49:46;10.63;;;8.33;;
16642;SDS011;8435;52.184;5.406;2023-02-07T11:52:18;10.67;;;9.50;;
16642;SDS011;8435;52.184;5.406;2023-02-07T11:54:49;11.40;;;9.50;;
16642;SDS011;8435;52.184;5.406;2023-02-07T11:57:19;13.57;;;10.37;;
16642;SDS011;8435;52.184;5.406;2023-02-07T11:59:48;9.73;;;8.30;;
16642;SDS011;8435;52.184;5.406;2023-02-07T12:02:25;10.63;;;8.23;;
16642;SDS011;8435;52.184;5.406;2023-02-07T12:04:55;8.83;;;7.37;;
16642;SDS011;8435;52.184;5.406;2023-02-07T12:07:38;9.90;;;7.57;;
16642;SDS011;8435;52.184;5.406;2023-02-07T12:10:09;7.93;;;7.00;;
16642;SDS011;8435;52.184;5.406;2023-02-07T12:12:41;9.57;;;7.77;;
16642;SDS011;8435;52.184;5.406;2023-02-07T12:15:11;8.17;;;6.40;;
16642;SDS011;8435;52.184;5.406;2023-02-07T12:17:45;7.60;;;6.20;;
16642;SDS011;8435;52.184;5.406;2023-02-07T12:20:22;6.20;;;5.47;;
16642;SDS011;8435;52.184;5.406;2023-02-07T12:22:54;6.70;;;5.93;;
16642;SDS011;8435;52.184;5.406;2023-02-07T12:25:26;6.70;;;6.00;;
16642;SDS011;8435;52.184;5.406;2023-02-07T12:27:58;6.80;;;5.53;;
16642;SDS011;8435;52.184;5.406;2023-02-07T12:30:30;6.73;;;5.80;;
16642;SDS011;8435;52.184;5.406;2023-02-07T12:33:02;7.97;;;5.40;;
16642;SDS011;8435;52.184;5.406;2023-02-07T12:35:37;6.77;;;5.27;;
16642;SDS011;8435;52.184;5.406;2023-02-07T12:38:14;4.93;;;4.40;;
16642;SDS011;8435;52.184;5.406;2023-02-07T12:40:42;5.23;;;4.77;;
16642;SDS011;8435;52.184;5.406;2023-02-07T12:43:12;5.33;;;4.83;;
16642;SDS011;8435;52.184;5.406;2023-02-07T12:45:50;5.97;;;5.00;;
16642;SDS011;8435;52.184;5.406;2023-02-07T12:48:38;5.73;;;5.20;;
16642;SDS011;8435;52.184;5.406;2023-02-07T12:51:36;5.27;;;4.77;;
16642;SDS011;8435;52.184;5.406;2023-02-07T12:54:14;5.20;;;4.70;;
16642;SDS011;8435;52.184;5.406;2023-02-07T12:56:51;5.50;;;4.67;;
16642;SDS011;8435;52.184;5.406;2023-02-07T12:59:28;5.70;;;4.77;;
16642;SDS011;8435;52.184;5.406;2023-02-07T13:02:10;7.07;;;5.40;;
16642;SDS011;8435;52.184;5.406;2023-02-07T13:05:03;5.30;;;4.80;;
16642;SDS011;8435;52.184;5.406;2023-02-07T13:07:44;6.60;;;5.20;;
16642;SDS011;8435;52.184;5.406;2023-02-07T13:10:24;7.60;;;4.80;;
16642;SDS011;8435;52.184;5.406;2023-02-07T13:13:01;5.73;;;5.13;;
16642;SDS011;8435;52.184;5.406;2023-02-07T13:15:38;5.00;;;4.50;;
16642;SDS011;8435;52.184;5.406;2023-02-07T13:18:13;6.90;;;4.83;;
16642;SDS011;8435;52.184;5.406;2023-02-07T13:20:53;6.33;;;4.77;;
16642;SDS011;8435;52.184;5.406;2023-02-07T13:23:27;6.50;;;5.80;;
16642;SDS011;8435;52.184;5.406;2023-02-07T13:25:58;5.80;;;4.93;;
16642;SDS011;8435;52.184;5.406;2023-02-07T13:28:29;6.93;;;5.47;;
16642;SDS011;8435;52.184;5.406;2023-02-07T13:31:01;7.07;;;6.13;;
16642;SDS011;8435;52.184;5.406;2023-02-07T13:33:30;7.13;;;5.73;;
16642;SDS011;8435;52.184;5.406;2023-02-07T13:36:03;7.37;;;5.80;;
16642;SDS011;8435;52.184;5.406;2023-02-07T13:38:39;6.87;;;6.23;;
16642;SDS011;8435;52.184;5.406;2023-02-07T13:41:22;6.77;;;5.80;;
16642;SDS011;8435;52.184;5.406;2023-02-07T13:43:59;6.10;;;5.43;;
16642;SDS011;8435;52.184;5.406;2023-02-07T13:46:37;6.27;;;5.67;;
16642;SDS011;8435;52.184;5.406;2023-02-07T13:49:27;6.13;;;5.20;;
16642;SDS011;8435;52.184;5.406;2023-02-07T13:52:08;7.60;;;6.10;;
16642;SDS011;8435;52.184;5.406;2023-02-07T13:54:40;7.13;;;5.70;;
16642;SDS011;8435;52.184;5.406;2023-02-07T13:57:18;6.80;;;5.83;;
16642;SDS011;8435;52.184;5.406;2023-02-07T14:00:06;6.40;;;5.70;;
16642;SDS011;8435;52.184;5.406;2023-02-07T14:02:44;6.10;;;5.43;;
16642;SDS011;8435;52.184;5.406;2023-02-07T14:05:21;9.50;;;5.80;;
16642;SDS011;8435;52.184;5.406;2023-02-07T14:07:54;5.63;;;5.10;;
16642;SDS011;8435;52.184;5.406;2023-02-07T14:10:35;5.10;;;4.60;;
16642;SDS011;8435;52.184;5.406;2023-02-07T14:13:14;4.97;;;4.40;;
16642;SDS011;8435;52.184;5.406;2023-02-07T14:15:59;6.03;;;5.40;;
16642;SDS011;8435;52.184;5.406;2023-02-07T14:18:36;5.40;;;4.90;;
16642;SDS011;8435;52.184;5.406;2023-02-07T14:27:01;6.80;;;6.10;;
16642;SDS011;8435;52.184;5.406;2023-02-07T14:38:42;8.63;;;6.03;;
16642;SDS011;8435;52.184;5.406;2023-02-07T14:41:25;6.67;;;5.17;;
16642;SDS011;8435;52.184;5.406;2023-02-07T14:43:55;7.73;;;5.87;;
16642;SDS011;8435;52.184;5.406;2023-02-07T14:46:26;6.30;;;5.70;;
16642;SDS011;8435;52.184;5.406;2023-02-07T14:48:57;6.67;;;5.27;;
16642;SDS011;8435;52.184;5.406;2023-02-07T14:51:29;8.30;;;5.47;;
16642;SDS011;8435;52.184;5.406;2023-02-07T14:54:04;6.63;;;5.10;;
16642;SDS011;8435;52.184;5.406;2023-02-07T14:56:39;6.87;;;5.30;;
16642;SDS011;8435;52.184;5.406;2023-02-07T14:59:13;5.57;;;4.63;;
16642;SDS011;8435;52.184;5.406;2023-02-07T15:01:44;6.80;;;5.33;;
16642;SDS011;8435;52.184;5.406;2023-02-07T15:04:11;6.63;;;5.00;;
16642;SDS011;8435;52.184;5.406;2023-02-07T15:06:39;6.07;;;4.83;;
16642;SDS011;8435;52.184;5.406;2023-02-07T15:09:16;6.47;;;5.77;;
16642;SDS011;8435;52.184;5.406;2023-02-07T15:11:47;7.03;;;5.73;;
16642;SDS011;8435;52.184;5.406;2023-02-07T15:14:18;6.30;;;5.70;;
16642;SDS011;8435;52.184;5.406;2023-02-07T15:16:52;5.47;;;4.97;;
16642;SDS011;8435;52.184;5.406;2023-02-07T15:19:19;6.03;;;5.07;;
16642;SDS011;8435;52.184;5.406;2023-02-07T15:21:50;5.57;;;4.83;;
16642;SDS011;8435;52.184;5.406;2023-02-07T15:24:19;5.53;;;5.00;;
16642;SDS011;8435;52.184;5.406;2023-02-07T15:26:56;6.33;;;5.60;;
16642;SDS011;8435;52.184;5.406;2023-02-07T15:29:25;5.23;;;4.73;;
16642;SDS011;8435;52.184;5.406;2023-02-07T15:31:55;6.07;;;5.47;;